createdAt,value
2019-02-09T00:01:09.574Z,8.40
2019-02-09T00:03:37.224Z,8.30
2019-02-09T00:06:05.394Z,8.30
2019-02-09T00:08:33.080Z,8.30
2019-02-09T00:11:00.744Z,8.20
2019-02-09T00:13:28.381Z,8.10
2019-02-09T00:15:56.058Z,8.10
2019-02-09T00:18:23.740Z,8.00
2019-02-09T00:20:51.368Z,7.90
2019-02-09T00:23:18.990Z,7.90
2019-02-09T00:25:46.609Z,7.80
2019-02-09T00:28:14.258Z,7.70
2019-02-09T00:30:41.890Z,7.70
2019-02-09T00:33:09.651Z,7.60
2019-02-09T00:35:37.337Z,7.60
2019-02-09T00:38:05.123Z,7.50
2019-02-09T00:40:32.769Z,7.40
2019-02-09T00:43:00.412Z,7.40
2019-02-09T00:45:28.318Z,7.40
2019-02-09T00:47:55.957Z,7.30
2019-02-09T00:50:23.827Z,7.40
2019-02-09T00:52:51.514Z,7.40
2019-02-09T00:55:19.475Z,7.40
2019-02-09T00:57:47.171Z,7.40
2019-02-09T01:00:17.512Z,7.40
2019-02-09T01:02:45.478Z,7.40
2019-02-09T01:05:14.481Z,7.40
2019-02-09T01:07:42.118Z,7.40
2019-02-09T01:10:11.116Z,7.40
2019-02-09T01:12:38.798Z,7.40
2019-02-09T01:15:08.893Z,7.40
2019-02-09T01:17:36.590Z,7.30
2019-02-09T01:20:06.095Z,7.30
2019-02-09T01:22:33.929Z,7.30
2019-02-09T01:25:01.541Z,7.30
2019-02-09T01:27:29.178Z,7.20
2019-02-09T01:30:02.133Z,7.20
2019-02-09T01:32:26.279Z,7.20
2019-02-09T01:34:53.909Z,7.20
2019-02-09T01:37:21.579Z,7.20
2019-02-09T01:39:49.302Z,7.20
2019-02-09T01:42:17.007Z,7.10
2019-02-09T01:44:44.631Z,7.10
2019-02-09T01:47:12.380Z,7.10
2019-02-09T01:49:40.004Z,7.00
2019-02-09T01:52:07.624Z,7.00
2019-02-09T01:54:35.280Z,7.00
2019-02-09T01:57:02.927Z,7.00
2019-02-09T01:59:30.598Z,7.00
2019-02-09T02:01:58.243Z,7.00
2019-02-09T02:04:25.912Z,6.90
2019-02-09T02:06:53.562Z,6.90
2019-02-09T02:09:21.228Z,6.90
2019-02-09T02:11:48.979Z,6.90
2019-02-09T02:14:16.634Z,6.90
2019-02-09T02:16:44.258Z,6.80
2019-02-09T02:19:12.003Z,6.80
2019-02-09T02:21:39.700Z,6.80
2019-02-09T02:24:07.340Z,6.80
2019-02-09T02:26:34.987Z,6.80
2019-02-09T02:29:02.660Z,6.90
2019-02-09T02:31:30.315Z,6.90
2019-02-09T02:33:57.982Z,6.90
2019-02-09T02:36:25.710Z,6.90
2019-02-09T02:38:53.336Z,6.90
2019-02-09T02:41:21.007Z,6.90
2019-02-09T02:43:48.634Z,6.80
2019-02-09T02:46:16.313Z,6.80
2019-02-09T02:48:43.948Z,6.80
2019-02-09T02:51:11.652Z,6.80
2019-02-09T02:53:39.356Z,6.80
2019-02-09T02:56:06.988Z,6.70
2019-02-09T02:58:34.653Z,6.70
2019-02-09T03:01:02.260Z,6.70
2019-02-09T03:03:29.903Z,6.70
2019-02-09T03:05:57.539Z,6.70
2019-02-09T03:08:25.447Z,6.70
2019-02-09T03:10:53.109Z,6.70
2019-02-09T03:13:20.742Z,6.70
2019-02-09T03:15:48.508Z,6.70
2019-02-09T03:18:16.112Z,6.70
2019-02-09T03:20:43.765Z,6.70
2019-02-09T03:23:11.348Z,6.70
2019-02-09T03:25:39.052Z,6.70
2019-02-09T03:28:06.683Z,6.70
2019-02-09T03:30:47.008Z,6.70
2019-02-09T03:33:03.807Z,6.80
2019-02-09T03:35:31.426Z,6.80
2019-02-09T03:37:59.119Z,6.80
2019-02-09T03:40:26.888Z,6.80
2019-02-09T03:42:54.770Z,6.80
2019-02-09T03:45:31.560Z,6.80
2019-02-09T03:47:59.507Z,6.80
2019-02-09T03:50:28.739Z,6.80
2019-02-09T03:52:56.375Z,6.80
2019-02-09T03:55:24.104Z,6.90
2019-02-09T03:57:51.840Z,6.90
2019-02-09T04:00:21.305Z,6.80
2019-02-09T04:02:49.239Z,6.80
2019-02-09T04:05:17.287Z,6.80
2019-02-09T04:07:44.941Z,6.90
2019-02-09T04:10:14.107Z,6.90
2019-02-09T04:12:41.741Z,6.90
2019-02-09T04:15:09.883Z,6.90
2019-02-09T04:17:37.515Z,6.90
2019-02-09T04:20:06.836Z,7.00
2019-02-09T04:22:34.498Z,7.00
2019-02-09T04:25:02.156Z,7.00
2019-02-09T04:27:29.794Z,7.00
2019-02-09T04:29:57.423Z,7.00
2019-02-09T04:32:25.036Z,7.00
2019-02-09T04:34:52.726Z,7.00
2019-02-09T04:37:20.429Z,7.00
2019-02-09T04:39:48.103Z,7.00
2019-02-09T04:42:15.772Z,7.00
2019-02-09T04:44:43.382Z,7.00
2019-02-09T04:47:11.066Z,7.00
2019-02-09T04:49:38.712Z,7.10
2019-02-09T04:52:06.327Z,7.10
2019-02-09T04:54:33.952Z,7.10
2019-02-09T04:57:01.575Z,7.10
2019-02-09T04:59:29.647Z,7.00
2019-02-09T05:01:57.316Z,7.00
2019-02-09T05:04:25.204Z,7.00
2019-02-09T05:06:52.827Z,7.00
2019-02-09T05:09:20.471Z,7.00
2019-02-09T05:11:48.111Z,7.00
2019-02-09T05:14:15.883Z,7.00
2019-02-09T05:16:43.563Z,7.00
2019-02-09T05:19:11.228Z,7.00
2019-02-09T05:21:38.840Z,7.00
2019-02-09T05:24:06.490Z,6.90
2019-02-09T05:26:34.147Z,6.90
2019-02-09T05:29:01.773Z,6.80
2019-02-09T05:31:29.441Z,6.80
2019-02-09T05:33:57.088Z,6.80
2019-02-09T05:36:24.763Z,6.70
2019-02-09T05:38:52.392Z,6.80
2019-02-09T05:41:20.064Z,6.80
2019-02-09T05:43:47.698Z,6.80
2019-02-09T05:46:15.345Z,6.90
2019-02-09T05:48:43.010Z,6.90
2019-02-09T05:51:11.720Z,6.90
2019-02-09T05:53:39.484Z,6.90
2019-02-09T05:56:07.172Z,7.00
2019-02-09T05:58:34.844Z,7.00
2019-02-09T06:01:03.387Z,7.00
2019-02-09T06:03:31.280Z,7.00
2019-02-09T06:05:59.222Z,7.10
2019-02-09T06:08:27.403Z,7.20
2019-02-09T06:10:55.270Z,7.20
2019-02-09T06:13:23.064Z,7.20
2019-02-09T06:15:50.701Z,7.30
2019-02-09T06:18:18.289Z,7.30
2019-02-09T06:20:46.057Z,7.30
2019-02-09T06:23:13.787Z,7.30
2019-02-09T06:25:41.477Z,7.30
2019-02-09T06:28:09.234Z,7.40
2019-02-09T06:30:36.981Z,7.40
2019-02-09T06:33:04.783Z,7.40
2019-02-09T06:35:32.422Z,7.50
2019-02-09T06:38:00.109Z,7.40
2019-02-09T06:40:27.966Z,7.20
2019-02-09T06:42:55.743Z,7.00
2019-02-09T06:45:23.501Z,6.90
2019-02-09T06:47:51.208Z,6.80
2019-02-09T06:50:21.650Z,6.60
2019-02-09T06:52:49.463Z,6.60
2019-02-09T06:55:17.211Z,6.60
2019-02-09T06:57:45.037Z,6.60
2019-02-09T07:00:15.172Z,6.60
2019-02-09T07:02:43.869Z,6.70
2019-02-09T07:05:14.162Z,6.70
2019-02-09T07:07:42.082Z,6.80
2019-02-09T07:10:11.065Z,6.90
2019-02-09T07:12:39.609Z,6.90
2019-02-09T07:15:09.979Z,6.90
2019-02-09T07:17:37.764Z,6.90
2019-02-09T07:20:06.779Z,6.90
2019-02-09T07:22:34.441Z,7.00
2019-02-09T07:25:02.411Z,7.00
2019-02-09T07:27:30.290Z,7.10
2019-02-09T07:29:58.229Z,7.10
2019-02-09T07:32:26.334Z,7.20
2019-02-09T07:34:54.223Z,7.20
2019-02-09T07:37:21.845Z,7.20
2019-02-09T07:39:49.798Z,7.30
2019-02-09T07:42:17.697Z,7.30
2019-02-09T07:44:45.621Z,7.30
2019-02-09T07:47:13.346Z,7.30
2019-02-09T07:49:41.033Z,7.30
2019-02-09T07:52:08.647Z,7.30
2019-02-09T07:54:36.463Z,7.30
2019-02-09T07:57:04.352Z,7.30
2019-02-09T07:59:31.975Z,7.30
2019-02-09T08:02:04.336Z,7.30
2019-02-09T08:04:29.067Z,7.40
2019-02-09T08:06:56.836Z,7.40
2019-02-09T08:09:24.464Z,7.40
2019-02-09T08:11:52.291Z,7.50
2019-02-09T08:14:20.181Z,7.50
2019-02-09T08:16:47.925Z,7.60
2019-02-09T08:19:15.983Z,7.70
2019-02-09T08:21:43.639Z,7.70
2019-02-09T08:24:11.324Z,7.80
2019-02-09T08:26:38.944Z,7.80
2019-02-09T08:29:06.579Z,7.90
2019-02-09T08:31:34.279Z,7.90
2019-02-09T08:34:01.891Z,8.10
2019-02-09T08:36:29.600Z,8.10
2019-02-09T08:38:57.227Z,8.20
2019-02-09T08:41:24.893Z,8.20
2019-02-09T08:43:52.578Z,8.20
2019-02-09T08:46:20.195Z,8.30
2019-02-09T08:48:47.868Z,8.30
2019-02-09T08:51:15.551Z,8.40
2019-02-09T08:53:43.143Z,8.40
2019-02-09T08:56:10.799Z,8.50
2019-02-09T08:58:38.406Z,8.40
2019-02-09T09:01:06.184Z,8.40
2019-02-09T09:03:33.812Z,8.50
2019-02-09T09:06:01.634Z,8.60
2019-02-09T09:08:29.271Z,8.60
2019-02-09T09:10:56.925Z,8.70
2019-02-09T09:13:24.583Z,8.70
2019-02-09T09:15:54.053Z,8.70
2019-02-09T09:18:21.751Z,8.70
2019-02-09T09:20:52.589Z,8.90
2019-02-09T09:23:21.100Z,9.00
2019-02-09T09:25:50.916Z,9.10
2019-02-09T09:28:19.008Z,9.10
2019-02-09T09:30:46.669Z,9.20
2019-02-09T09:33:14.286Z,9.30
2019-02-09T09:35:43.386Z,9.30
2019-02-09T09:38:11.645Z,9.40
2019-02-09T09:40:42.082Z,9.60
2019-02-09T09:43:10.947Z,9.60
2019-02-09T09:45:38.987Z,9.50
2019-02-09T09:48:08.763Z,9.40
2019-02-09T09:50:37.210Z,9.40
2019-02-09T09:53:05.922Z,9.40
2019-02-09T09:55:33.716Z,9.40
2019-02-09T09:58:01.418Z,9.40
2019-02-09T10:00:29.200Z,9.40
2019-02-09T10:02:57.261Z,9.40
2019-02-09T10:05:25.235Z,9.50
2019-02-09T10:07:53.108Z,9.60
2019-02-09T10:10:21.138Z,9.60
2019-02-09T10:12:49.301Z,9.60
2019-02-09T10:15:18.952Z,9.70
2019-02-09T10:17:46.980Z,9.70
2019-02-09T10:20:16.962Z,9.70
2019-02-09T10:22:45.056Z,9.80
2019-02-09T10:25:13.429Z,9.80
2019-02-09T10:27:41.363Z,9.90
2019-02-09T10:30:20.346Z,9.90
2019-02-09T10:32:48.329Z,10.00
2019-02-09T10:35:16.418Z,10.10
2019-02-09T10:37:44.303Z,10.00
2019-02-09T10:40:20.653Z,9.90
2019-02-09T10:42:48.637Z,9.80
2019-02-09T10:45:20.998Z,10.00
2019-02-09T10:47:48.926Z,10.10
2019-02-09T10:50:22.652Z,10.00
2019-02-09T10:52:50.500Z,9.90
2019-02-09T10:55:18.526Z,9.80
2019-02-09T10:57:46.375Z,9.70
2019-02-09T11:00:20.060Z,9.70
2019-02-09T11:02:52.276Z,9.60
2019-02-09T11:05:18.767Z,9.50
2019-02-09T11:07:46.543Z,9.30
2019-02-09T11:10:15.608Z,9.00
2019-02-09T11:12:43.273Z,9.00
2019-02-09T11:15:12.753Z,8.90
2019-02-09T11:17:40.662Z,8.90
2019-02-09T11:20:10.435Z,9.00
2019-02-09T11:22:38.298Z,8.90
2019-02-09T11:25:07.338Z,8.80
2019-02-09T11:27:35.140Z,8.80
2019-02-09T11:30:04.240Z,8.80
2019-02-09T11:32:32.327Z,8.90
2019-02-09T11:35:00.331Z,9.00
2019-02-09T11:37:28.146Z,9.20
2019-02-09T11:39:55.781Z,9.30
2019-02-09T11:42:23.485Z,9.50
2019-02-09T11:44:51.256Z,9.80
2019-02-09T11:47:19.114Z,9.80
2019-02-09T11:49:46.925Z,9.90
2019-02-09T11:52:14.804Z,9.90
2019-02-09T11:54:42.613Z,10.00
2019-02-09T11:57:10.527Z,10.00
2019-02-09T11:59:38.300Z,10.10
2019-02-09T12:02:06.251Z,10.20
2019-02-09T12:04:34.055Z,10.30
2019-02-09T12:07:01.878Z,10.30
2019-02-09T12:09:29.701Z,10.40
2019-02-09T12:11:57.508Z,10.40
2019-02-09T12:14:25.429Z,10.50
2019-02-09T12:16:53.239Z,10.40
2019-02-09T12:19:21.059Z,10.50
2019-02-09T12:21:48.859Z,10.70
2019-02-09T12:24:19.585Z,10.70
2019-02-09T12:26:47.605Z,10.60
2019-02-09T12:29:15.242Z,10.50
2019-02-09T12:31:42.890Z,10.50
2019-02-09T12:34:10.557Z,10.40
2019-02-09T12:36:38.258Z,10.30
2019-02-09T12:39:08.603Z,10.30
2019-02-09T12:41:36.261Z,10.10
2019-02-09T12:44:04.451Z,10.10
2019-02-09T12:46:32.100Z,10.00
2019-02-09T12:48:59.748Z,10.00
2019-02-09T12:51:27.390Z,9.90
2019-02-09T12:53:55.079Z,9.80
2019-02-09T12:56:22.803Z,9.80
2019-02-09T12:58:50.447Z,9.80
2019-02-09T13:01:18.054Z,9.70
2019-02-09T13:03:45.767Z,9.70
2019-02-09T13:06:13.393Z,9.70
2019-02-09T13:08:41.003Z,9.70
2019-02-09T13:11:08.707Z,9.70
2019-02-09T13:13:36.511Z,9.70
2019-02-09T13:16:04.356Z,9.80
2019-02-09T13:18:32.021Z,9.90
2019-02-09T13:20:59.656Z,9.90
2019-02-09T13:23:27.350Z,9.90
2019-02-09T13:25:55.092Z,10.10
2019-02-09T13:28:22.766Z,10.10
2019-02-09T13:30:50.446Z,10.10
2019-02-09T13:33:18.129Z,10.00
2019-02-09T13:35:45.842Z,10.00
2019-02-09T13:38:13.491Z,9.90
2019-02-09T13:40:41.163Z,9.90
2019-02-09T13:43:08.856Z,9.90
2019-02-09T13:45:38.749Z,9.90
2019-02-09T13:48:06.676Z,9.90
2019-02-09T13:50:34.790Z,9.90
2019-02-09T13:53:02.422Z,9.90
2019-02-09T13:55:30.367Z,10.00
2019-02-09T13:57:58.181Z,10.00
2019-02-09T14:00:26.071Z,10.00
2019-02-09T14:02:54.374Z,9.90
2019-02-09T14:05:22.019Z,9.80
2019-02-09T14:07:49.663Z,9.80
2019-02-09T14:10:18.590Z,9.80
2019-02-09T14:12:46.523Z,9.90
2019-02-09T14:15:19.405Z,9.80
2019-02-09T14:17:47.034Z,9.80
2019-02-09T14:20:14.823Z,9.70
2019-02-09T14:22:43.556Z,9.70
2019-02-09T14:25:12.776Z,9.60
2019-02-09T14:27:40.496Z,9.60
2019-02-09T14:30:12.197Z,9.50
2019-02-09T14:32:39.879Z,9.40
2019-02-09T14:35:08.391Z,9.30
2019-02-09T14:37:36.075Z,9.20
2019-02-09T14:40:05.148Z,9.20
2019-02-09T14:42:32.892Z,9.10
2019-02-09T14:45:00.514Z,9.10
2019-02-09T14:47:28.286Z,9.00
2019-02-09T14:49:55.920Z,9.00
2019-02-09T14:52:23.598Z,8.90
2019-02-09T14:54:51.255Z,8.90
2019-02-09T14:57:18.905Z,8.80
2019-02-09T14:59:46.561Z,8.60
2019-02-09T15:02:14.358Z,8.30
2019-02-09T15:04:41.959Z,8.20
2019-02-09T15:07:09.584Z,8.20
2019-02-09T15:09:37.274Z,8.20
2019-02-09T15:12:05.060Z,8.20
2019-02-09T15:14:32.697Z,8.30
2019-02-09T15:17:05.469Z,8.30
2019-02-09T15:19:34.012Z,8.40
2019-02-09T15:22:01.674Z,8.40
2019-02-09T15:24:29.363Z,8.40
2019-02-09T15:26:56.979Z,8.40
2019-02-09T15:29:26.036Z,8.40
2019-02-09T15:31:53.916Z,8.40
2019-02-09T15:34:21.543Z,8.40
2019-02-09T15:36:49.205Z,8.40
2019-02-09T15:39:16.884Z,8.40
2019-02-09T15:41:44.515Z,8.40
2019-02-09T15:44:12.184Z,8.50
2019-02-09T15:46:39.829Z,8.40
2019-02-09T15:49:07.487Z,8.50
2019-02-09T15:51:35.119Z,8.50
2019-02-09T15:54:02.756Z,8.50
2019-02-09T15:56:30.388Z,8.40
2019-02-09T15:58:58.003Z,8.40
2019-02-09T16:01:25.641Z,8.40
2019-02-09T16:03:53.263Z,8.40
2019-02-09T16:06:20.951Z,8.40
2019-02-09T16:08:48.587Z,8.40
2019-02-09T16:11:16.278Z,8.40
2019-02-09T16:13:45.884Z,8.40
2019-02-09T16:16:13.311Z,8.30
2019-02-09T16:18:40.956Z,8.30
2019-02-09T16:21:08.595Z,8.30
2019-02-09T16:23:36.244Z,8.30
2019-02-09T16:26:04.405Z,8.20
2019-02-09T16:28:32.019Z,8.20
2019-02-09T16:30:59.801Z,8.20
2019-02-09T16:33:27.461Z,8.20
2019-02-09T16:35:55.092Z,8.10
2019-02-09T16:38:26.750Z,8.10
2019-02-09T16:40:54.882Z,8.10
2019-02-09T16:43:22.901Z,8.20
2019-02-09T16:45:50.602Z,8.20
2019-02-09T16:48:18.552Z,8.10
2019-02-09T16:50:46.240Z,8.10
2019-02-09T16:53:13.880Z,8.10
2019-02-09T16:55:42.176Z,8.10
2019-02-09T16:58:11.637Z,8.10
2019-02-09T17:00:42.287Z,8.10
2019-02-09T17:03:10.285Z,8.10
2019-02-09T17:05:38.115Z,8.20
2019-02-09T17:08:06.366Z,8.20
2019-02-09T17:10:34.313Z,8.20
2019-02-09T17:13:02.085Z,8.20
2019-02-09T17:15:30.311Z,8.20
2019-02-09T17:17:57.959Z,8.20
2019-02-09T17:20:26.086Z,8.10
2019-02-09T17:22:53.716Z,8.10
2019-02-09T17:25:21.472Z,8.10
2019-02-09T17:27:49.111Z,8.10
2019-02-09T17:30:20.048Z,8.10
2019-02-09T17:32:52.418Z,8.10
2019-02-09T17:35:20.120Z,8.10
2019-02-09T17:37:48.768Z,8.10
2019-02-09T17:40:18.716Z,8.10
2019-02-09T17:42:53.140Z,8.00
2019-02-09T17:45:18.918Z,8.10
2019-02-09T17:47:48.694Z,8.10
2019-02-09T17:50:16.432Z,8.10
2019-02-09T17:52:44.462Z,8.10
2019-02-09T17:55:14.397Z,8.10
2019-02-09T17:57:42.437Z,8.00
2019-02-09T18:00:13.528Z,8.00
2019-02-09T18:02:44.295Z,8.00
2019-02-09T18:05:12.517Z,8.00
2019-02-09T18:07:40.143Z,8.00
2019-02-09T18:10:11.064Z,8.00
2019-02-09T18:12:38.778Z,7.90
2019-02-09T18:15:06.755Z,8.00
2019-02-09T18:17:34.946Z,8.00
2019-02-09T18:20:04.451Z,8.00
2019-02-09T18:22:32.244Z,8.00
2019-02-09T18:24:59.902Z,8.00
2019-02-09T18:27:27.517Z,8.00
2019-02-09T18:29:55.332Z,8.00
2019-02-09T18:32:22.989Z,8.00
2019-02-09T18:34:55.948Z,8.00
2019-02-09T18:37:20.215Z,8.00
2019-02-09T18:39:47.966Z,8.00
2019-02-09T18:42:15.626Z,8.00
2019-02-09T18:44:43.272Z,8.00
2019-02-09T18:47:11.046Z,8.00
2019-02-09T18:49:38.746Z,8.00
2019-02-09T18:52:06.387Z,8.00
2019-02-09T18:54:34.035Z,7.90
2019-02-09T18:57:01.698Z,7.90
2019-02-09T18:59:29.419Z,7.80
2019-02-09T19:01:57.043Z,7.70
2019-02-09T19:04:24.703Z,7.70
2019-02-09T19:06:52.344Z,7.70
2019-02-09T19:09:20.004Z,7.70
2019-02-09T19:11:47.747Z,7.70
2019-02-09T19:14:15.420Z,7.70
2019-02-09T19:16:43.105Z,7.70
2019-02-09T19:19:10.742Z,7.80
2019-02-09T19:21:38.539Z,7.80
2019-02-09T19:24:06.186Z,7.80
2019-02-09T19:26:33.868Z,7.80
2019-02-09T19:29:01.613Z,7.80
2019-02-09T19:31:29.230Z,7.80
2019-02-09T19:33:57.160Z,7.80
2019-02-09T19:36:24.917Z,7.80
2019-02-09T19:38:52.576Z,7.80
2019-02-09T19:41:20.311Z,7.90
2019-02-09T19:43:47.911Z,7.90
2019-02-09T19:46:15.567Z,7.90
2019-02-09T19:48:43.218Z,7.90
2019-02-09T19:51:10.934Z,7.90
2019-02-09T19:53:38.649Z,7.90
2019-02-09T19:56:06.291Z,7.90
2019-02-09T19:58:33.916Z,7.90
2019-02-09T20:01:01.552Z,8.00
2019-02-09T20:03:29.183Z,7.90
2019-02-09T20:05:56.845Z,8.00
2019-02-09T20:08:24.487Z,8.00
2019-02-09T20:10:52.144Z,7.90
2019-02-09T20:13:19.786Z,7.90
2019-02-09T20:15:47.456Z,7.90
2019-02-09T20:18:15.159Z,7.90
2019-02-09T20:20:47.441Z,7.80
2019-02-09T20:23:12.325Z,7.70
2019-02-09T20:25:40.004Z,7.70
2019-02-09T20:28:07.817Z,7.60
2019-02-09T20:30:35.643Z,7.60
2019-02-09T20:33:03.955Z,7.50
2019-02-09T20:35:31.807Z,7.50
2019-02-09T20:37:59.571Z,7.40
2019-02-09T20:40:29.786Z,7.40
2019-02-09T20:43:02.231Z,7.40
2019-02-09T20:45:26.895Z,7.40
2019-02-09T20:47:55.408Z,7.40
2019-02-09T20:50:23.208Z,7.30
2019-02-09T20:52:50.815Z,7.30
2019-02-09T20:55:19.380Z,7.30
2019-02-09T20:57:47.017Z,7.30
2019-02-09T21:00:18.259Z,7.20
2019-02-09T21:02:46.010Z,7.20
2019-02-09T21:05:13.992Z,7.20
2019-02-09T21:07:41.637Z,7.20
2019-02-09T21:10:31.337Z,7.20
2019-02-09T21:12:58.933Z,7.20
2019-02-09T21:15:27.201Z,7.20
2019-02-09T21:17:55.051Z,7.10
2019-02-09T21:20:22.690Z,7.10
2019-02-09T21:22:50.305Z,7.10
2019-02-09T21:25:26.000Z,7.10
2019-02-09T21:27:53.644Z,7.10
2019-02-09T21:30:22.430Z,7.00
2019-02-09T21:32:51.379Z,7.00
2019-02-09T21:35:19.164Z,7.00
2019-02-09T21:37:47.359Z,7.00
2019-02-09T21:40:17.086Z,7.00
2019-02-09T21:42:44.727Z,7.00
2019-02-09T21:45:12.704Z,7.00
2019-02-09T21:47:40.367Z,7.00
2019-02-09T21:50:11.021Z,7.00
2019-02-09T21:52:38.661Z,6.90
2019-02-09T21:55:07.351Z,6.90
2019-02-09T21:57:34.973Z,6.90
2019-02-09T22:00:03.631Z,6.80
2019-02-09T22:02:31.255Z,6.80
2019-02-09T22:05:00.280Z,6.80
2019-02-09T22:07:28.051Z,6.70
2019-02-09T22:09:55.958Z,6.70
2019-02-09T22:12:23.527Z,6.70
2019-02-09T22:14:51.208Z,6.70
2019-02-09T22:17:18.941Z,6.60
2019-02-09T22:19:46.678Z,6.60
2019-02-09T22:22:14.382Z,6.60
2019-02-09T22:24:42.056Z,6.70
2019-02-09T22:27:09.695Z,6.70
2019-02-09T22:29:37.323Z,6.70
2019-02-09T22:32:05.030Z,6.80
2019-02-09T22:34:32.644Z,6.80
2019-02-09T22:37:00.375Z,6.90
2019-02-09T22:39:28.019Z,6.90
2019-02-09T22:41:55.671Z,7.00
2019-02-09T22:44:23.311Z,7.00
2019-02-09T22:46:50.980Z,7.00
2019-02-09T22:49:18.634Z,7.10
2019-02-09T22:51:46.335Z,7.10
2019-02-09T22:54:13.971Z,7.20
2019-02-09T22:56:41.579Z,7.20
2019-02-09T22:59:09.259Z,7.20
2019-02-09T23:01:56.377Z,7.30
2019-02-09T23:04:54.317Z,7.30
2019-02-09T23:07:24.831Z,7.30
2019-02-09T23:09:52.512Z,7.40
2019-02-09T23:12:20.207Z,7.40
2019-02-09T23:14:48.019Z,7.40
2019-02-09T23:17:15.648Z,7.40
2019-02-09T23:19:43.281Z,7.40
2019-02-09T23:22:10.941Z,7.50
2019-02-09T23:24:38.706Z,7.50
2019-02-09T23:27:06.366Z,7.40
2019-02-09T23:29:33.976Z,7.40
2019-02-09T23:32:01.687Z,7.40
2019-02-09T23:34:29.331Z,7.40
2019-02-09T23:36:57.011Z,7.40
2019-02-09T23:39:24.720Z,7.40
2019-02-09T23:41:52.392Z,7.40
2019-02-09T23:44:20.050Z,7.40
2019-02-09T23:46:47.739Z,7.40
2019-02-09T23:49:15.367Z,7.30
2019-02-09T23:51:43.044Z,7.30
2019-02-09T23:54:10.659Z,7.30
2019-02-09T23:56:38.332Z,7.30
2019-02-09T23:59:06.009Z,7.20
